sensor_id;sensor_type;location;lat;lon;timestamp;pressure;altitude;pressure_sealevel;temperature;humidity
65758;BME280;52495;52.208;5.158;2022-10-16T00:01:06;100838.28;;;13.65;80.74
65758;BME280;52495;52.208;5.158;2022-10-16T00:03:32;100836.63;;;13.63;80.14
65758;BME280;52495;52.208;5.158;2022-10-16T00:05:59;100840.03;;;13.65;79.97
65758;BME280;52495;52.208;5.158;2022-10-16T00:08:26;100845.03;;;13.71;79.99
65758;BME280;52495;52.208;5.158;2022-10-16T00:10:57;100845.03;;;13.71;79.74
65758;BME280;52495;52.208;5.158;2022-10-16T00:13:24;100845.09;;;13.68;79.34
65758;BME280;52495;52.208;5.158;2022-10-16T00:15:50;100835.53;;;13.70;78.99
65758;BME280;52495;52.208;5.158;2022-10-16T00:18:17;100843.41;;;13.67;78.91
65758;BME280;52495;52.208;5.158;2022-10-16T00:20:43;100843.31;;;13.70;78.80
65758;BME280;52495;52.208;5.158;2022-10-16T00:23:10;100836.44;;;13.69;78.61
65758;BME280;52495;52.208;5.158;2022-10-16T00:25:36;100825.03;;;13.75;79.06
65758;BME280;52495;52.208;5.158;2022-10-16T00:28:04;100829.44;;;13.73;78.66
65758;BME280;52495;52.208;5.158;2022-10-16T00:30:31;100826.06;;;13.69;78.63
65758;BME280;52495;52.208;5.158;2022-10-16T00:32:57;100827.75;;;13.70;78.04
65758;BME280;52495;52.208;5.158;2022-10-16T00:35:24;100834.56;;;13.74;78.41
65758;BME280;52495;52.208;5.158;2022-10-16T00:37:50;100829.47;;;13.71;78.40
65758;BME280;52495;52.208;5.158;2022-10-16T00:40:17;100820.78;;;13.72;78.67
65758;BME280;52495;52.208;5.158;2022-10-16T00:42:43;100837.97;;;13.76;78.29
65758;BME280;52495;52.208;5.158;2022-10-16T00:45:11;100824.28;;;13.71;78.70
65758;BME280;52495;52.208;5.158;2022-10-16T00:47:39;100824.19;;;13.74;78.40
65758;BME280;52495;52.208;5.158;2022-10-16T00:50:07;100842.19;;;13.79;78.69
65758;BME280;52495;52.208;5.158;2022-10-16T00:52:34;100843.09;;;13.78;78.89
65758;BME280;52495;52.208;5.158;2022-10-16T00:55:01;100841.38;;;13.77;78.82
65758;BME280;52495;52.208;5.158;2022-10-16T00:57:28;100824.91;;;13.79;78.77
65758;BME280;52495;52.208;5.158;2022-10-16T00:59:55;100824.09;;;13.77;78.75
65758;BME280;52495;52.208;5.158;2022-10-16T01:02:24;100848.34;;;13.76;79.30
65758;BME280;52495;52.208;5.158;2022-10-16T01:04:51;100847.38;;;13.79;79.42
65758;BME280;52495;52.208;5.158;2022-10-16T01:07:26;100823.28;;;13.75;79.75
65758;BME280;52495;52.208;5.158;2022-10-16T01:09:59;100821.44;;;13.79;79.38
65758;BME280;52495;52.208;5.158;2022-10-16T01:12:35;100823.09;;;13.81;79.46
65758;BME280;52495;52.208;5.158;2022-10-16T01:15:06;100824.75;;;13.84;79.81
65758;BME280;52495;52.208;5.158;2022-10-16T01:17:38;100828.22;;;13.83;80.14
65758;BME280;52495;52.208;5.158;2022-10-16T01:20:10;100824.75;;;13.84;80.21
65758;BME280;52495;52.208;5.158;2022-10-16T01:22:38;100830.75;;;13.86;80.38
65758;BME280;52495;52.208;5.158;2022-10-16T01:25:07;100817.78;;;13.85;80.23
65758;BME280;52495;52.208;5.158;2022-10-16T01:27:37;100825.63;;;13.83;80.53
65758;BME280;52495;52.208;5.158;2022-10-16T01:30:07;100823.03;;;13.83;80.26
65758;BME280;52495;52.208;5.158;2022-10-16T01:32:36;100815.31;;;13.81;80.73
65758;BME280;52495;52.208;5.158;2022-10-16T01:35:04;100814.47;;;13.81;81.30
65758;BME280;52495;52.208;5.158;2022-10-16T01:37:37;100810.91;;;13.84;80.89
65758;BME280;52495;52.208;5.158;2022-10-16T01:40:06;100816.91;;;13.86;81.14
65758;BME280;52495;52.208;5.158;2022-10-16T01:42:37;100821.28;;;13.84;81.86
65758;BME280;52495;52.208;5.158;2022-10-16T01:45:05;100799.63;;;13.85;81.96
65758;BME280;52495;52.208;5.158;2022-10-16T01:47:33;100815.97;;;13.88;82.10
65758;BME280;52495;52.208;5.158;2022-10-16T01:50:02;100820.38;;;13.86;82.16
65758;BME280;52495;52.208;5.158;2022-10-16T01:52:30;100815.31;;;13.81;83.16
65758;BME280;52495;52.208;5.158;2022-10-16T01:54:58;100823.03;;;13.83;83.24
65758;BME280;52495;52.208;5.158;2022-10-16T01:57:26;100821.34;;;13.82;83.85
65758;BME280;52495;52.208;5.158;2022-10-16T01:59:58;100828.31;;;13.80;83.84
65758;BME280;52495;52.208;5.158;2022-10-16T02:02:37;100836.97;;;13.80;83.83
65758;BME280;52495;52.208;5.158;2022-10-16T02:05:06;100830.13;;;13.78;84.24
65758;BME280;52495;52.208;5.158;2022-10-16T02:07:36;100836.16;;;13.78;84.63
65758;BME280;52495;52.208;5.158;2022-10-16T02:10:03;100843.97;;;13.77;84.68
65758;BME280;52495;52.208;5.158;2022-10-16T02:12:30;100842.34;;;13.74;84.63
65758;BME280;52495;52.208;5.158;2022-10-16T02:14:59;100833.84;;;13.69;84.89
65758;BME280;52495;52.208;5.158;2022-10-16T02:17:25;100853.91;;;13.64;85.04
65758;BME280;52495;52.208;5.158;2022-10-16T02:19:52;100853.03;;;13.63;85.40
65758;BME280;52495;52.208;5.158;2022-10-16T02:22:21;100848.00;;;13.59;85.18
65758;BME280;52495;52.208;5.158;2022-10-16T02:24:50;100849.69;;;13.60;84.97
65758;BME280;52495;52.208;5.158;2022-10-16T02:27:19;100860.97;;;13.59;84.79
65758;BME280;52495;52.208;5.158;2022-10-16T02:29:47;100860.25;;;13.54;85.22
65758;BME280;52495;52.208;5.158;2022-10-16T02:32:18;100862.91;;;13.52;84.89
65758;BME280;52495;52.208;5.158;2022-10-16T02:34:46;100863.94;;;13.46;85.84
65758;BME280;52495;52.208;5.158;2022-10-16T02:37:14;100864.00;;;13.43;85.79
65758;BME280;52495;52.208;5.158;2022-10-16T02:39:41;100864.03;;;13.42;86.38
65758;BME280;52495;52.208;5.158;2022-10-16T02:42:09;100863.94;;;13.45;85.53
65758;BME280;52495;52.208;5.158;2022-10-16T02:44:36;100873.41;;;13.47;85.38
65758;BME280;52495;52.208;5.158;2022-10-16T02:47:02;100867.50;;;13.42;86.26
65758;BME280;52495;52.208;5.158;2022-10-16T02:49:30;100870.91;;;13.44;85.64
65758;BME280;52495;52.208;5.158;2022-10-16T02:51:56;100873.56;;;13.41;86.20
65758;BME280;52495;52.208;5.158;2022-10-16T02:54:23;100875.28;;;13.42;86.83
65758;BME280;52495;52.208;5.158;2022-10-16T02:56:49;100869.22;;;13.42;86.78
65758;BME280;52495;52.208;5.158;2022-10-16T02:59:17;100868.38;;;13.41;86.49
65758;BME280;52495;52.208;5.158;2022-10-16T03:01:44;100873.59;;;13.40;86.82
65758;BME280;52495;52.208;5.158;2022-10-16T03:04:11;100869.19;;;13.43;86.71
65758;BME280;52495;52.208;5.158;2022-10-16T03:06:38;100864.75;;;13.48;85.97
65758;BME280;52495;52.208;5.158;2022-10-16T03:09:05;100865.72;;;13.43;86.81
65758;BME280;52495;52.208;5.158;2022-10-16T03:11:32;100868.34;;;13.43;86.43
65758;BME280;52495;52.208;5.158;2022-10-16T03:13:58;100858.91;;;13.40;87.07
65758;BME280;52495;52.208;5.158;2022-10-16T03:16:24;100853.72;;;13.40;86.83
65758;BME280;52495;52.208;5.158;2022-10-16T03:18:51;100871.09;;;13.36;87.13
65758;BME280;52495;52.208;5.158;2022-10-16T03:21:17;100858.13;;;13.36;87.22
65758;BME280;52495;52.208;5.158;2022-10-16T03:23:45;100866.78;;;13.35;87.20
65758;BME280;52495;52.208;5.158;2022-10-16T03:26:12;100868.53;;;13.35;87.10
65758;BME280;52495;52.208;5.158;2022-10-16T03:28:38;100870.31;;;13.33;87.34
65758;BME280;52495;52.208;5.158;2022-10-16T03:31:05;100876.34;;;13.33;87.55
65758;BME280;52495;52.208;5.158;2022-10-16T03:33:31;100882.56;;;13.28;88.09
65758;BME280;52495;52.208;5.158;2022-10-16T03:35:58;100889.47;;;13.27;88.10
65758;BME280;52495;52.208;5.158;2022-10-16T03:38:25;100889.53;;;13.26;87.94
65758;BME280;52495;52.208;5.158;2022-10-16T03:40:53;100898.16;;;13.26;88.09
65758;BME280;52495;52.208;5.158;2022-10-16T03:43:20;100899.16;;;13.22;88.76
65758;BME280;52495;52.208;5.158;2022-10-16T03:45:46;100899.09;;;13.24;88.84
65758;BME280;52495;52.208;5.158;2022-10-16T03:48:13;100904.22;;;13.25;88.63
65758;BME280;52495;52.208;5.158;2022-10-16T03:50:40;100900.75;;;13.26;88.70
65758;BME280;52495;52.208;5.158;2022-10-16T03:53:06;100902.53;;;13.24;88.98
65758;BME280;52495;52.208;5.158;2022-10-16T03:55:33;100891.31;;;13.24;89.09
65758;BME280;52495;52.208;5.158;2022-10-16T03:58:02;100900.78;;;13.25;88.83
65758;BME280;52495;52.208;5.158;2022-10-16T04:00:28;100898.97;;;13.28;88.28
65758;BME280;52495;52.208;5.158;2022-10-16T04:02:55;100908.56;;;13.25;88.45
65758;BME280;52495;52.208;5.158;2022-10-16T04:05:21;100919.91;;;13.20;89.17
65758;BME280;52495;52.208;5.158;2022-10-16T04:07:48;100912.13;;;13.22;89.15
65758;BME280;52495;52.208;5.158;2022-10-16T04:10:14;100918.19;;;13.21;89.36
65758;BME280;52495;52.208;5.158;2022-10-16T04:12:40;100913.06;;;13.18;89.36
65758;BME280;52495;52.208;5.158;2022-10-16T04:15:09;100916.50;;;13.18;89.80
65758;BME280;52495;52.208;5.158;2022-10-16T04:17:35;100932.03;;;13.20;90.11
65758;BME280;52495;52.208;5.158;2022-10-16T04:20:02;100924.13;;;13.25;89.50
65758;BME280;52495;52.208;5.158;2022-10-16T04:22:29;100929.41;;;13.21;89.36
65758;BME280;52495;52.208;5.158;2022-10-16T04:24:55;100925.16;;;13.19;89.67
65758;BME280;52495;52.208;5.158;2022-10-16T04:27:22;100938.94;;;13.21;89.98
65758;BME280;52495;52.208;5.158;2022-10-16T04:29:48;100934.56;;;13.23;89.45
65758;BME280;52495;52.208;5.158;2022-10-16T04:32:16;100942.34;;;13.21;89.54
65758;BME280;52495;52.208;5.158;2022-10-16T04:34:42;100941.47;;;13.23;89.73
65758;BME280;52495;52.208;5.158;2022-10-16T04:37:09;100956.19;;;13.22;89.52
65758;BME280;52495;52.208;5.158;2022-10-16T04:39:35;100955.31;;;13.21;89.90
65758;BME280;52495;52.208;5.158;2022-10-16T04:42:02;100957.97;;;13.20;90.33
65758;BME280;52495;52.208;5.158;2022-10-16T04:44:32;100962.28;;;13.19;89.93
65758;BME280;52495;52.208;5.158;2022-10-16T04:46:59;100961.47;;;13.17;90.40
65758;BME280;52495;52.208;5.158;2022-10-16T04:49:26;100970.13;;;13.18;90.25
65758;BME280;52495;52.208;5.158;2022-10-16T04:51:53;100965.84;;;13.15;90.55
65758;BME280;52495;52.208;5.158;2022-10-16T04:54:19;100970.25;;;13.13;90.20
65758;BME280;52495;52.208;5.158;2022-10-16T04:56:46;100961.56;;;13.14;90.19
65758;BME280;52495;52.208;5.158;2022-10-16T04:59:16;100977.16;;;13.13;90.16
65758;BME280;52495;52.208;5.158;2022-10-16T05:01:43;100992.75;;;13.11;90.79
65758;BME280;52495;52.208;5.158;2022-10-16T05:04:09;100985.88;;;13.09;90.94
65758;BME280;52495;52.208;5.158;2022-10-16T05:06:37;100994.56;;;13.08;90.81
65758;BME280;52495;52.208;5.158;2022-10-16T05:09:04;101000.59;;;13.08;90.90
65758;BME280;52495;52.208;5.158;2022-10-16T05:11:31;100997.19;;;13.06;90.78
65758;BME280;52495;52.208;5.158;2022-10-16T05:13:58;100998.91;;;13.07;91.39
65758;BME280;52495;52.208;5.158;2022-10-16T05:16:24;101010.03;;;13.11;91.18
65758;BME280;52495;52.208;5.158;2022-10-16T05:18:51;101008.31;;;13.11;91.25
65758;BME280;52495;52.208;5.158;2022-10-16T05:21:17;101012.63;;;13.11;91.13
65758;BME280;52495;52.208;5.158;2022-10-16T05:23:45;101014.25;;;13.15;90.82
65758;BME280;52495;52.208;5.158;2022-10-16T05:26:12;101019.50;;;13.12;91.13
65758;BME280;52495;52.208;5.158;2022-10-16T05:28:38;101022.88;;;13.15;91.05
65758;BME280;52495;52.208;5.158;2022-10-16T05:31:05;101029.06;;;13.11;91.28
65758;BME280;52495;52.208;5.158;2022-10-16T05:33:32;101027.28;;;13.12;91.84
65758;BME280;52495;52.208;5.158;2022-10-16T05:36:00;101033.28;;;13.14;91.71
65758;BME280;52495;52.208;5.158;2022-10-16T05:38:27;101042.72;;;13.16;91.08
65758;BME280;52495;52.208;5.158;2022-10-16T05:40:55;101045.31;;;13.16;91.16
65758;BME280;52495;52.208;5.158;2022-10-16T05:43:22;101047.84;;;13.19;91.26
65758;BME280;52495;52.208;5.158;2022-10-16T05:45:55;101059.09;;;13.18;91.45
65758;BME280;52495;52.208;5.158;2022-10-16T05:48:22;101055.66;;;13.18;91.10
65758;BME280;52495;52.208;5.158;2022-10-16T05:50:55;101057.38;;;13.19;91.79
65758;BME280;52495;52.208;5.158;2022-10-16T05:53:25;101070.34;;;13.17;92.08
65758;BME280;52495;52.208;5.158;2022-10-16T05:55:52;101078.25;;;13.14;92.88
65758;BME280;52495;52.208;5.158;2022-10-16T05:58:20;101073.97;;;13.12;93.48
65758;BME280;52495;52.208;5.158;2022-10-16T06:00:52;101069.59;;;13.14;93.29
65758;BME280;52495;52.208;5.158;2022-10-16T06:03:18;101083.50;;;13.11;93.97
65758;BME280;52495;52.208;5.158;2022-10-16T06:05:45;101081.78;;;13.10;94.34
65758;BME280;52495;52.208;5.158;2022-10-16T06:08:11;101083.50;;;13.10;94.71
65758;BME280;52495;52.208;5.158;2022-10-16T06:10:38;101091.28;;;13.10;94.74
65758;BME280;52495;52.208;5.158;2022-10-16T06:13:04;101087.72;;;13.14;94.54
65758;BME280;52495;52.208;5.158;2022-10-16T06:15:32;101089.50;;;13.12;94.94
65758;BME280;52495;52.208;5.158;2022-10-16T06:17:59;101099.06;;;13.10;95.24
65758;BME280;52495;52.208;5.158;2022-10-16T06:20:25;101086.09;;;13.11;95.65
65758;BME280;52495;52.208;5.158;2022-10-16T06:22:52;101085.19;;;13.12;94.86
65758;BME280;52495;52.208;5.158;2022-10-16T06:25:19;101080.03;;;13.11;95.47
65758;BME280;52495;52.208;5.158;2022-10-16T06:27:45;101078.31;;;13.10;95.82
65758;BME280;52495;52.208;5.158;2022-10-16T06:30:11;101083.56;;;13.08;95.63
65758;BME280;52495;52.208;5.158;2022-10-16T06:32:39;101087.91;;;13.06;95.95
65758;BME280;52495;52.208;5.158;2022-10-16T06:35:06;101101.75;;;13.05;95.90
65758;BME280;52495;52.208;5.158;2022-10-16T06:37:33;101097.50;;;13.02;95.97
65758;BME280;52495;52.208;5.158;2022-10-16T06:39:59;101098.34;;;13.03;96.47
65758;BME280;52495;52.208;5.158;2022-10-16T06:42:26;101102.69;;;13.02;96.23
65758;BME280;52495;52.208;5.158;2022-10-16T06:44:55;101101.00;;;13.01;96.10
65758;BME280;52495;52.208;5.158;2022-10-16T06:47:22;101095.03;;;12.98;96.53
65758;BME280;52495;52.208;5.158;2022-10-16T06:49:50;101101.06;;;12.98;96.78
65758;BME280;52495;52.208;5.158;2022-10-16T06:52:16;101114.09;;;12.95;97.30
65758;BME280;52495;52.208;5.158;2022-10-16T06:54:43;101106.19;;;13.01;96.00
65758;BME280;52495;52.208;5.158;2022-10-16T06:57:09;101110.53;;;12.99;96.28
65758;BME280;52495;52.208;5.158;2022-10-16T06:59:36;101115.78;;;12.96;96.76
65758;BME280;52495;52.208;5.158;2022-10-16T07:02:02;101113.97;;;13.00;96.52
65758;BME280;52495;52.208;5.158;2022-10-16T07:04:29;101130.34;;;13.02;96.94
65758;BME280;52495;52.208;5.158;2022-10-16T07:06:57;101132.13;;;13.00;96.90
65758;BME280;52495;52.208;5.158;2022-10-16T07:09:23;101139.81;;;13.03;97.36
65758;BME280;52495;52.208;5.158;2022-10-16T07:11:50;101146.88;;;12.98;96.90
65758;BME280;52495;52.208;5.158;2022-10-16T07:14:17;101156.31;;;13.00;96.87
65758;BME280;52495;52.208;5.158;2022-10-16T07:16:47;101153.66;;;13.03;97.20
65758;BME280;52495;52.208;5.158;2022-10-16T07:19:14;101162.28;;;13.04;96.81
65758;BME280;52495;52.208;5.158;2022-10-16T07:21:42;101167.38;;;13.07;96.45
65758;BME280;52495;52.208;5.158;2022-10-16T07:24:12;101169.09;;;13.08;96.44
65758;BME280;52495;52.208;5.158;2022-10-16T07:26:39;101170.81;;;13.08;95.86
65758;BME280;52495;52.208;5.158;2022-10-16T07:29:06;101184.59;;;13.10;95.08
65758;BME280;52495;52.208;5.158;2022-10-16T07:31:34;101188.06;;;13.10;95.11
65758;BME280;52495;52.208;5.158;2022-10-16T07:34:03;101187.19;;;13.11;95.22
65758;BME280;52495;52.208;5.158;2022-10-16T07:36:29;101193.16;;;13.15;95.08
65758;BME280;52495;52.208;5.158;2022-10-16T07:38:56;101192.31;;;13.14;94.56
65758;BME280;52495;52.208;5.158;2022-10-16T07:41:24;101201.81;;;13.14;94.78
65758;BME280;52495;52.208;5.158;2022-10-16T07:43:51;101211.34;;;13.12;94.74
65758;BME280;52495;52.208;5.158;2022-10-16T07:46:17;101230.31;;;13.14;94.69
65758;BME280;52495;52.208;5.158;2022-10-16T07:48:44;101229.38;;;13.16;94.13
65758;BME280;52495;52.208;5.158;2022-10-16T07:51:13;101240.66;;;13.15;93.96
65758;BME280;52495;52.208;5.158;2022-10-16T07:53:40;101231.97;;;13.18;94.44
65758;BME280;52495;52.208;5.158;2022-10-16T07:56:10;101227.56;;;13.23;94.81
65758;BME280;52495;52.208;5.158;2022-10-16T07:58:39;101237.91;;;13.23;94.90
65758;BME280;52495;52.208;5.158;2022-10-16T08:01:06;101239.47;;;13.32;94.11
65758;BME280;52495;52.208;5.158;2022-10-16T08:03:33;101235.22;;;13.28;94.55
65758;BME280;52495;52.208;5.158;2022-10-16T08:06:00;101253.25;;;13.32;95.17
65758;BME280;52495;52.208;5.158;2022-10-16T08:08:27;101249.66;;;13.40;94.74
65758;BME280;52495;52.208;5.158;2022-10-16T08:10:57;101253.91;;;13.44;94.96
65758;BME280;52495;52.208;5.158;2022-10-16T08:13:23;101258.19;;;13.46;95.16
65758;BME280;52495;52.208;5.158;2022-10-16T08:15:53;101259.03;;;13.47;95.38
65758;BME280;52495;52.208;5.158;2022-10-16T08:18:20;101260.66;;;13.51;95.48
65758;BME280;52495;52.208;5.158;2022-10-16T08:20:46;101267.50;;;13.55;95.48
65758;BME280;52495;52.208;5.158;2022-10-16T08:23:13;101269.81;;;13.68;94.40
65758;BME280;52495;52.208;5.158;2022-10-16T08:25:39;101273.16;;;13.73;94.13
65758;BME280;52495;52.208;5.158;2022-10-16T08:28:07;101275.69;;;13.74;94.80
65758;BME280;52495;52.208;5.158;2022-10-16T08:30:34;101274.75;;;13.77;94.86
65758;BME280;52495;52.208;5.158;2022-10-16T08:33:02;101283.25;;;13.84;94.90
65758;BME280;52495;52.208;5.158;2022-10-16T08:35:28;101274.56;;;13.86;94.32
65758;BME280;52495;52.208;5.158;2022-10-16T08:37:55;101273.63;;;13.89;93.95
65758;BME280;52495;52.208;5.158;2022-10-16T08:40:22;101287.34;;;13.94;93.76
65758;BME280;52495;52.208;5.158;2022-10-16T08:42:57;101289.72;;;14.03;93.49
65758;BME280;52495;52.208;5.158;2022-10-16T08:45:32;101299.00;;;14.14;92.23
65758;BME280;52495;52.208;5.158;2022-10-16T08:48:06;101298.94;;;14.17;92.11
65758;BME280;52495;52.208;5.158;2022-10-16T08:50:38;101304.84;;;14.22;91.60
65758;BME280;52495;52.208;5.158;2022-10-16T08:53:05;101299.66;;;14.22;90.57
65758;BME280;52495;52.208;5.158;2022-10-16T08:55:33;101313.38;;;14.27;90.86
65758;BME280;52495;52.208;5.158;2022-10-16T08:58:01;101314.06;;;14.34;90.69
65758;BME280;52495;52.208;5.158;2022-10-16T09:00:27;101317.44;;;14.37;90.58
65758;BME280;52495;52.208;5.158;2022-10-16T09:02:57;101319.88;;;14.44;90.19
65758;BME280;52495;52.208;5.158;2022-10-16T09:05:41;101324.63;;;14.61;90.06
65758;BME280;52495;52.208;5.158;2022-10-16T09:08:12;101324.63;;;14.61;88.84
65758;BME280;52495;52.208;5.158;2022-10-16T09:10:46;101334.94;;;14.64;88.84
65758;BME280;52495;52.208;5.158;2022-10-16T09:13:17;101339.94;;;14.73;88.90
65758;BME280;52495;52.208;5.158;2022-10-16T09:15:47;101336.28;;;14.80;88.66
65758;BME280;52495;52.208;5.158;2022-10-16T09:18:18;101353.59;;;14.81;87.81
65758;BME280;52495;52.208;5.158;2022-10-16T09:20:51;101350.78;;;14.89;87.71
65758;BME280;52495;52.208;5.158;2022-10-16T09:23:23;101361.03;;;14.95;87.75
65758;BME280;52495;52.208;5.158;2022-10-16T09:25:51;101357.53;;;14.96;87.48
65758;BME280;52495;52.208;5.158;2022-10-16T09:28:19;101360.34;;;14.89;87.08
65758;BME280;52495;52.208;5.158;2022-10-16T09:30:45;101365.47;;;14.92;87.53
65758;BME280;52495;52.208;5.158;2022-10-16T09:33:13;101364.56;;;14.93;86.54
65758;BME280;52495;52.208;5.158;2022-10-16T09:35:47;101353.22;;;14.95;86.86
65758;BME280;52495;52.208;5.158;2022-10-16T09:38:25;101355.75;;;14.97;85.87
65758;BME280;52495;52.208;5.158;2022-10-16T09:40:53;101367.72;;;15.04;85.44
65758;BME280;52495;52.208;5.158;2022-10-16T09:43:21;101369.28;;;15.10;85.46
65758;BME280;52495;52.208;5.158;2022-10-16T09:45:55;101370.84;;;15.17;85.42
65758;BME280;52495;52.208;5.158;2022-10-16T09:48:22;101369.88;;;15.20;83.99
65758;BME280;52495;52.208;5.158;2022-10-16T09:50:55;101372.19;;;15.30;84.65
65758;BME280;52495;52.208;5.158;2022-10-16T09:53:23;101375.69;;;15.29;84.24
65758;BME280;52495;52.208;5.158;2022-10-16T09:55:52;101380.81;;;15.32;83.00
65758;BME280;52495;52.208;5.158;2022-10-16T09:58:20;101384.25;;;15.33;82.72
65758;BME280;52495;52.208;5.158;2022-10-16T10:00:50;101383.22;;;15.39;81.91
65758;BME280;52495;52.208;5.158;2022-10-16T10:03:25;101391.59;;;15.48;82.09
65758;BME280;52495;52.208;5.158;2022-10-16T10:05:56;101380.22;;;15.53;81.65
65758;BME280;52495;52.208;5.158;2022-10-16T10:08:24;101383.41;;;15.62;81.33
65758;BME280;52495;52.208;5.158;2022-10-16T10:10:51;101382.22;;;15.73;81.14
65758;BME280;52495;52.208;5.158;2022-10-16T10:13:18;101395.16;;;15.76;80.57
65758;BME280;52495;52.208;5.158;2022-10-16T10:15:45;101396.94;;;15.74;80.29
65758;BME280;52495;52.208;5.158;2022-10-16T10:18:15;101393.66;;;15.69;80.02
65758;BME280;52495;52.208;5.158;2022-10-16T10:20:43;101391.75;;;15.74;80.28
65758;BME280;52495;52.208;5.158;2022-10-16T10:23:19;101393.34;;;15.78;80.41
65758;BME280;52495;52.208;5.158;2022-10-16T10:25:51;101394.22;;;15.78;80.62
65758;BME280;52495;52.208;5.158;2022-10-16T10:28:29;101393.97;;;15.88;80.65
65758;BME280;52495;52.208;5.158;2022-10-16T10:31:00;101407.88;;;15.87;80.62
65758;BME280;52495;52.208;5.158;2022-10-16T10:33:31;101410.25;;;15.95;80.29
65758;BME280;52495;52.208;5.158;2022-10-16T10:36:05;101409.13;;;16.03;79.63
65758;BME280;52495;52.208;5.158;2022-10-16T10:38:38;101416.69;;;16.11;77.63
65758;BME280;52495;52.208;5.158;2022-10-16T10:41:22;101420.97;;;16.14;77.38
65758;BME280;52495;52.208;5.158;2022-10-16T10:43:54;101420.81;;;16.18;76.94
65758;BME280;52495;52.208;5.158;2022-10-16T10:46:23;101426.88;;;16.19;76.73
65758;BME280;52495;52.208;5.158;2022-10-16T10:48:59;101426.63;;;16.27;76.66
65758;BME280;52495;52.208;5.158;2022-10-16T10:51:31;101429.03;;;16.33;77.08
65758;BME280;52495;52.208;5.158;2022-10-16T10:54:04;101434.97;;;16.38;76.34
65758;BME280;52495;52.208;5.158;2022-10-16T10:56:43;101428.47;;;16.51;76.35
65758;BME280;52495;52.208;5.158;2022-10-16T11:01:55;101442.47;;;16.47;75.27
65758;BME280;52495;52.208;5.158;2022-10-16T11:07:04;101440.06;;;16.41;75.25
65758;BME280;52495;52.208;5.158;2022-10-16T11:09:32;101439.16;;;16.42;75.25
65758;BME280;52495;52.208;5.158;2022-10-16T11:12:04;101446.78;;;16.48;75.67
65758;BME280;52495;52.208;5.158;2022-10-16T11:14:34;101454.53;;;16.51;74.47
65758;BME280;52495;52.208;5.158;2022-10-16T11:17:02;101450.06;;;16.55;71.45
65758;BME280;52495;52.208;5.158;2022-10-16T11:19:33;101454.47;;;16.53;70.20
65758;BME280;52495;52.208;5.158;2022-10-16T11:24:34;101454.56;;;16.50;69.78
65758;BME280;52495;52.208;5.158;2022-10-16T11:27:04;101456.22;;;16.52;69.87
65758;BME280;52495;52.208;5.158;2022-10-16T11:29:34;101461.19;;;16.60;69.51
65758;BME280;52495;52.208;5.158;2022-10-16T11:32:04;101472.47;;;16.61;68.22
65758;BME280;52495;52.208;5.158;2022-10-16T11:34:34;101469.59;;;16.68;69.26
65758;BME280;52495;52.208;5.158;2022-10-16T11:37:04;101473.81;;;16.73;69.26
65758;BME280;52495;52.208;5.158;2022-10-16T11:39:33;101470.22;;;16.77;68.10
65758;BME280;52495;52.208;5.158;2022-10-16T11:42:01;101471.75;;;16.82;68.70
65758;BME280;52495;52.208;5.158;2022-10-16T11:47:23;101477.97;;;16.78;64.50
65758;BME280;52495;52.208;5.158;2022-10-16T11:49:51;101472.06;;;16.73;64.91
65758;BME280;52495;52.208;5.158;2022-10-16T11:52:20;101474.72;;;16.72;65.78
65758;BME280;52495;52.208;5.158;2022-10-16T11:54:50;101470.47;;;16.69;66.14
65758;BME280;52495;52.208;5.158;2022-10-16T11:57:19;101478.28;;;16.69;66.86
65758;BME280;52495;52.208;5.158;2022-10-16T11:59:48;101480.75;;;16.74;66.53
65758;BME280;52495;52.208;5.158;2022-10-16T12:02:28;101477.47;;;16.67;65.18
65758;BME280;52495;52.208;5.158;2022-10-16T12:05:00;101491.25;;;16.71;66.03
65758;BME280;52495;52.208;5.158;2022-10-16T12:07:32;101488.63;;;16.72;65.43
65758;BME280;52495;52.208;5.158;2022-10-16T12:10:09;101493.13;;;16.67;64.47
65758;BME280;52495;52.208;5.158;2022-10-16T12:12:38;101484.31;;;16.71;63.99
65758;BME280;52495;52.208;5.158;2022-10-16T12:15:18;101495.38;;;16.78;63.99
65758;BME280;52495;52.208;5.158;2022-10-16T12:17:46;101493.63;;;16.78;61.81
65758;BME280;52495;52.208;5.158;2022-10-16T12:20:23;101500.34;;;16.86;61.54
65758;BME280;52495;52.208;5.158;2022-10-16T12:22:51;101497.59;;;16.90;61.60
65758;BME280;52495;52.208;5.158;2022-10-16T12:25:23;101498.22;;;16.98;61.41
65758;BME280;52495;52.208;5.158;2022-10-16T12:27:54;101505.09;;;17.01;62.63
65758;BME280;52495;52.208;5.158;2022-10-16T12:30:22;101496.13;;;17.08;62.65
65758;BME280;52495;52.208;5.158;2022-10-16T12:32:54;101506.25;;;17.18;62.77
65758;BME280;52495;52.208;5.158;2022-10-16T12:35:22;101505.94;;;17.27;62.54
65758;BME280;52495;52.208;5.158;2022-10-16T12:37:49;101510.16;;;17.31;62.05
65758;BME280;52495;52.208;5.158;2022-10-16T12:40:23;101509.06;;;17.37;62.07
65758;BME280;52495;52.208;5.158;2022-10-16T12:42:51;101507.16;;;17.42;62.75
65758;BME280;52495;52.208;5.158;2022-10-16T12:45:25;101499.28;;;17.43;62.18
65758;BME280;52495;52.208;5.158;2022-10-16T12:47:54;101504.34;;;17.48;62.52
65758;BME280;52495;52.208;5.158;2022-10-16T12:50:25;101503.97;;;17.59;63.10
65758;BME280;52495;52.208;5.158;2022-10-16T12:52:52;101506.78;;;17.53;61.48
65758;BME280;52495;52.208;5.158;2022-10-16T12:55:20;101505.91;;;17.52;61.90
65758;BME280;52495;52.208;5.158;2022-10-16T12:57:55;101506.00;;;17.51;62.32
65758;BME280;52495;52.208;5.158;2022-10-16T13:00:26;101505.28;;;17.45;62.33
65758;BME280;52495;52.208;5.158;2022-10-16T13:05:40;101508.13;;;17.39;63.66
65758;BME280;52495;52.208;5.158;2022-10-16T13:08:18;101506.34;;;17.41;63.78
65758;BME280;52495;52.208;5.158;2022-10-16T13:10:53;101509.72;;;17.43;63.81